Vaasa Airport

EFVA · Ostrobotnia, Finlandia

Storia di METAR EFVA · Vaasa Airport

Di seguito sono riportati i METAR degli ultimi giorni. Seleziona un anno per sfogliare i METAR più vecchi, dall'anno 2007 in poi.

19 luglio 2024

Tempo Codice Tempo meteorologico Temp. Vista Base nuvolosa Vento METAR/SPECI
12:20
V
21 °C 10 km+ - 330° 330° 5 kt METAR EFVA 190920Z AUTO 33005KT 280V010 9999 FEW023 21/17 Q1011
11:50
M
21 °C 10 km+ 2.100 ft 310° 310° 5 kt METAR EFVA 190850Z AUTO 31005KT 260V020 9999 BKN021 21/17 Q1011
11:20
M
21 °C 10 km+ 1.800 ft 270° 270° 6 kt METAR EFVA 190820Z AUTO 27006KT 9999 BKN018 21/16 Q1011
10:50
M
21 °C 10 km+ 2.000 ft 280° 280° 7 kt METAR EFVA 190750Z AUTO 28007KT 240V320 9999 BKN020 21/16 Q1011
10:20
V
20 °C 10 km+ - 270° 270° 3 kt METAR EFVA 190720Z AUTO 27003KT 220V330 CAVOK 20/15 Q1011
09:50
V
20 °C 10 km+ - Var Var 2 kt METAR EFVA 190650Z AUTO VRB02KT CAVOK 20/16 Q1011
09:20
V
19 °C 10 km+ - Var Var 2 kt METAR EFVA 190620Z AUTO VRB02KT CAVOK 19/16 Q1011
08:50
V
17 °C 10 km+ - Var Var 2 kt METAR EFVA 190550Z AUTO VRB02KT CAVOK 17/16 Q1011
08:20
V
17 °C 10 km+ - Var Var 2 kt METAR EFVA 190520Z AUTO VRB02KT 9999 FEW043 17/15 Q1011
07:50
V
17 °C 10 km+ - Var Var 1 kt METAR EFVA 190450Z AUTO VRB01KT 9999 SCT043 17/15 Q1011
07:20
V
16 °C 10 km+ - 340° 340° 3 kt METAR EFVA 190420Z AUTO 34003KT CAVOK 16/15 Q1011
06:50
V
16 °C 10 km+ - 330° 330° 3 kt METAR EFVA 190350Z AUTO 33003KT 9999 FEW039 16/15 Q1011
06:20
V
16 °C 10 km+ - 340° 340° 4 kt METAR EFVA 190320Z AUTO 34004KT CAVOK 16/16 Q1011
05:50
V
16 °C 10 km+ - 320° 320° 4 kt METAR EFVA 190250Z AUTO 32004KT 9999 FEW007 16/16 Q1011
05:20
V
16 °C 10 km+ - 340° 340° 3 kt METAR EFVA 190220Z AUTO 34003KT 9999 SCT007 16/16 Q1011
04:50
V
15 °C 10 km+ - Var Var 1 kt METAR EFVA 190150Z AUTO VRB01KT 9999 SCT007 15/15 Q1011
04:20
L
15 °C 1,1 km 200 ft Var Var 2 kt METAR EFVA 190120Z AUTO VRB02KT 1100 R34/1000 BCFG VV002 15/15 Q1011
03:50
L
15 °C 3,8 km 100 ft Var Var 1 kt METAR EFVA 190050Z AUTO VRB01KT 9999 3800 OVC001 15/15 Q1011
03:20
L
15 °C 4,8 km 300 ft Var Var 1 kt METAR EFVA 190020Z AUTO VRB01KT 9999 4800 BCFG BKN003 15/15 Q1011
02:50
L
15 °C 350 m - Var Var 1 kt METAR EFVA 182350Z AUTO VRB01KT 1400 0350 R34/1900 BCFG FEW003 15/15 Q1010
02:20
L
15 °C 900 m - Var Var 1 kt METAR EFVA 182320Z AUTO VRB01KT 3800 0900 R34/P2000D BR NSC 15/15 Q1010
01:50
V
15 °C 10 km+ - 210° 210° 2 kt METAR EFVA 182250Z AUTO 21002KT CAVOK 15/15 Q1010
01:20
V
15 °C 10 km+ - Var Var 2 kt METAR EFVA 182220Z AUTO VRB02KT CAVOK 15/15 Q1010
00:50
V
15 °C 10 km+ - 360° 360° 3 kt METAR EFVA 182150Z AUTO 36003KT 9999 FEW002 15/15 Q1010
00:20
L
15 °C 1,1 km - 340° 340° 4 kt METAR EFVA 182120Z AUTO 34004KT 4300 1100 R16/P2000D BR FEW002 15/15 Q1010

18 luglio 2024

Tempo Codice Tempo meteorologico Temp. Vista Base nuvolosa Vento METAR/SPECI
23:50
L
16 °C 800 m - Var Var 1 kt METAR EFVA 182050Z AUTO VRB01KT 2400 0800 R16/P2000D BR FEW002 16/16 Q1011
23:20
L
17 °C 650 m - Var Var 1 kt METAR EFVA 182020Z AUTO VRB01KT 1100 0650 R16/P2000D BCFG NSC 17/17 Q1010
22:50
V
17 °C 10 km+ - Var Var 1 kt METAR EFVA 181950Z AUTO VRB01KT CAVOK 17/17 Q1011
22:20
V
18 °C 10 km+ - Var Var 1 kt METAR EFVA 181920Z AUTO VRB01KT 9999 -RA NSC 18/16 Q1011
21:50
V
18 °C 10 km+ - 020° 020° 2 kt METAR EFVA 181850Z AUTO 02002KT 9999 //////CB 18/17 Q1010
21:20
V
18 °C 10 km+ - 030° 030° 4 kt METAR EFVA 181820Z AUTO 03004KT 9999 //////CB 18/16 Q1010
20:50
V
18 °C 10 km+ - 070° 070° 2 kt METAR EFVA 181750Z AUTO 07002KT 9999 //////CB 18/17 Q1010
20:20
V
18 °C 10 km+ - 040° 040° 3 kt METAR EFVA 181720Z AUTO 04003KT 9999 //////CB 18/16 Q1010
19:50
V
18 °C 10 km+ - 080° 080° 3 kt METAR EFVA 181650Z AUTO 08003KT 010V120 9999 -SHRA //////CB 18/16 Q1010
19:20
V
17 °C 10 km+ - Var Var 2 kt METAR EFVA 181620Z AUTO VRB02KT 9999 FEW047 17/16 Q1010
18:50
V
17 °C 10 km+ - 060° 060° 4 kt METAR EFVA 181550Z AUTO 06004KT 030V110 CAVOK 17/16 Q1011
18:20
V
17 °C 10 km+ - 010° 010° 3 kt METAR EFVA 181520Z AUTO 01003KT 340V070 9999 VCTS SCT049 //////CB 17/16 Q1011 RETS RETSRA
17:50
V
16 °C 10 km+ 3.800 ft 340° 340° 6 kt METAR EFVA 181450Z AUTO 34006KT 9999 TS BKN038 //////CB 16/16 Q1011
17:20
M
16 °C 10 km+ 1.800 ft 280° 280° 6 kt METAR EFVA 181420Z AUTO 28006KT 9999 TSRA BKN018 //////CB 16/15 Q1011
16:50
L
16 °C 1,1 km 1.900 ft 230° 230° 17 kt METAR EFVA 181350Z AUTO 23017KT 180V260 2700 1100 R34/P2000D +SHRA VCTS BKN019 BKN041 //////CB 16/15 Q1011
16:20
V
22 °C 10 km+ 3.800 ft 350° 350° 9 kt METAR EFVA 181320Z AUTO 35009KT 9999 VCTS BKN038 //////CB 22/17 Q1010
15:50
V
22 °C 10 km+ - Var Var 4 kt METAR EFVA 181250Z AUTO VRB04KT 9999 FEW034 22/16 Q1010
15:20
V
21 °C 10 km+ 4.200 ft 010° 010° 4 kt METAR EFVA 181220Z AUTO 01004KT 330V030 9999 BKN042 21/15 Q1010
14:50
V
21 °C 10 km+ - Var Var 4 kt METAR EFVA 181150Z AUTO VRB04KT 9999 FEW026 SCT032 //////CB 21/16 Q1010
14:20
V
21 °C 10 km+ 3.300 ft 220° 220° 4 kt METAR EFVA 181120Z AUTO 22004KT 150V280 9999 BKN033 //////CB 21/15 Q1011
13:50
V
20 °C 10 km+ 3.500 ft 220° 220° 5 kt METAR EFVA 181050Z AUTO 22005KT 9999 SHRA BKN035 20/15 Q1011 RERA
13:20
V
21 °C 10 km+ 3.200 ft 230° 230° 4 kt METAR EFVA 181020Z AUTO 23004KT 190V260 9999 BKN032 21/14 Q1011
12:50
V
21 °C 10 km+ - 190° 190° 4 kt METAR EFVA 180950Z AUTO 19004KT 150V210 CAVOK 21/15 Q1011
12:20
V
21 °C 10 km+ - 190° 190° 5 kt METAR EFVA 180920Z AUTO 19005KT 140V220 9999 FEW026 SCT031 21/15 Q1011
11:50
V
20 °C 10 km+ - 160° 160° 6 kt METAR EFVA 180850Z AUTO 16006KT 120V230 9999 SCT024 20/15 Q1011
11:20
V
21 °C 10 km+ - 180° 180° 6 kt METAR EFVA 180820Z AUTO 18006KT 140V210 9999 FEW024 21/15 Q1011
10:50
V
20 °C 10 km+ - 170° 170° 8 kt METAR EFVA 180750Z AUTO 17008KT 9999 FEW021 20/16 Q1011
10:20
V
19 °C 10 km+ - 200° 200° 8 kt METAR EFVA 180720Z AUTO 20008KT 9999 SCT017 19/16 Q1011
09:50
V
19 °C 10 km+ - 190° 190° 9 kt METAR EFVA 180650Z AUTO 19009KT 9999 SCT021 19/15 Q1011
09:20
V
19 °C 10 km+ - 200° 200° 6 kt METAR EFVA 180620Z AUTO 20006KT 9999 FEW013 19/16 Q1010
08:50
V
19 °C 10 km+ - 170° 170° 7 kt METAR EFVA 180550Z AUTO 17007KT 9999 SCT010 19/16 Q1010
08:20
V
18 °C 10 km+ - 180° 180° 7 kt METAR EFVA 180520Z AUTO 18007KT 9999 SCT010 18/16 Q1010
07:50
V
18 °C 10 km+ - 190° 190° 7 kt METAR EFVA 180450Z AUTO 19007KT 9999 FEW008 18/16 Q1010
07:20
V
18 °C 10 km+ - 180° 180° 7 kt METAR EFVA 180420Z AUTO 18007KT CAVOK 18/16 Q1010
06:50
V
17 °C 10 km+ - 180° 180° 5 kt METAR EFVA 180350Z AUTO 18005KT 9999 FEW004 17/16 Q1010
06:20
V
16 °C 10 km+ - 140° 140° 4 kt METAR EFVA 180320Z AUTO 14004KT CAVOK 16/16 Q1010
05:50
I
16 °C 3,8 km - 150° 150° 4 kt METAR EFVA 180250Z AUTO 15004KT 9999 3800 FEW006 16/16 Q1010
05:20
L
16 °C 450 m - 140° 140° 3 kt METAR EFVA 180220Z AUTO 14003KT 110V200 6000 0450 R16/P2000D FEW029 16/16 Q1010
04:50
L
16 °C 550 m - Var Var 2 kt METAR EFVA 180150Z AUTO VRB02KT 6000 0550 R34/P2000U FEW012 16/16 Q1009
04:20
L
16 °C 500 m - Var Var 2 kt METAR EFVA 180120Z AUTO VRB02KT 4200 0500 R34/P2000D BR NSC 16/16 Q1010
03:50
V
17 °C 10 km+ - 160° 160° 3 kt METAR EFVA 180050Z AUTO 16003KT 110V190 CAVOK 17/16 Q1009
03:20
V
17 °C 10 km+ - 150° 150° 5 kt METAR EFVA 180020Z AUTO 15005KT 9999 FEW010 17/16 Q1010
02:50
M
17 °C 10 km+ 2.300 ft 150° 150° 5 kt METAR EFVA 172350Z AUTO 15005KT 9999 -RA BKN023 17/17 Q1009
02:20
V
17 °C 10 km+ 5.000 ft 150° 150° 6 kt METAR EFVA 172320Z AUTO 15006KT 9999 SCT007 BKN050 17/17 Q1009
01:50
M
18 °C 10 km+ 1.000 ft 140° 140° 5 kt METAR EFVA 172250Z AUTO 14005KT 110V170 9999 BKN010 18/18 Q1009
01:20
I
18 °C 10 km+ 900 ft 170° 170° 3 kt METAR EFVA 172220Z AUTO 17003KT 9999 BKN009 OVC036 18/18 Q1009
00:50
V
18 °C 10 km+ 3.200 ft 130° 130° 3 kt METAR EFVA 172150Z AUTO 13003KT 9999 FEW006 OVC032 18/18 Q1009
00:20
M
18 °C 10 km+ 1.200 ft 200° 200° 5 kt METAR EFVA 172120Z AUTO 20005KT 150V250 9999 OVC012 18/18 Q1009

17 luglio 2024

Tempo Codice Tempo meteorologico Temp. Vista Base nuvolosa Vento METAR/SPECI
23:50
M
18 °C 10 km+ 2.200 ft 130° 130° 4 kt METAR EFVA 172050Z AUTO 13004KT 9999 OVC022 18/18 Q1009
23:20
I
18 °C 10 km+ 800 ft 140° 140° 4 kt METAR EFVA 172020Z AUTO 14004KT 090V200 9999 -SHRA BKN008 OVC021 18/18 Q1009
22:50
M
19 °C 10 km+ 1.900 ft 120° 120° 6 kt METAR EFVA 171950Z AUTO 12006KT 9999 OVC019 19/18 Q1009
22:20
M
19 °C 10 km+ 2.500 ft 120° 120° 8 kt METAR EFVA 171920Z AUTO 12008KT 9999 BKN025 BKN042 19/18 Q1009
21:50
M
19 °C 10 km+ 2.400 ft 130° 130° 9 kt METAR EFVA 171850Z AUTO 13009KT 9999 OVC024 19/18 Q1009
21:20
M
19 °C 10 km+ 2.300 ft 120° 120° 9 kt METAR EFVA 171820Z AUTO 12009KT 9999 BKN023 OVC028 19/18 Q1009
20:50
M
19 °C 10 km+ 2.700 ft 120° 120° 11 kt METAR EFVA 171750Z AUTO 12011KT 9999 OVC027 19/18 Q1009
20:20
M
19 °C 10 km+ 2.800 ft 110° 110° 6 kt METAR EFVA 171720Z AUTO 11006KT 070V130 9999 -SHRA OVC028 //////CB 19/18 Q1009
19:50
V
19 °C 10 km+ 3.100 ft 100° 100° 7 kt METAR EFVA 171650Z AUTO 10007KT 9999 -SHRA OVC031 //////CB 19/18 Q1009
19:20
V
19 °C 10 km+ 3.300 ft 100° 100° 7 kt METAR EFVA 171620Z AUTO 10007KT 9999 OVC033 //////CB 19/18 Q1009
18:50
V
19 °C 10 km+ 3.500 ft 090° 090° 5 kt METAR EFVA 171550Z AUTO 09005KT 060V130 9999 -SHRA OVC035 //////CB 19/18 Q1009
18:20
V
19 °C 10 km+ 3.300 ft 070° 070° 6 kt METAR EFVA 171520Z AUTO 07006KT 040V110 9999 +SHRA BKN033 //////CB 19/18 Q1009
17:50
V
19 °C 8 km 3.100 ft 060° 060° 9 kt METAR EFVA 171450Z AUTO 06009KT 040V100 8000 +SHRA BKN031 //////CB 19/18 Q1010
17:20
V
18 °C 10 km+ 4.000 ft 040° 040° 14 kt METAR EFVA 171420Z AUTO 04014KT 9999 +SHRA OVC040 //////CB 18/18 Q1010
16:50
L
18 °C 1,2 km 3.800 ft 050° 050° 5 kt METAR EFVA 171350Z AUTO 05005KT 010V090 1500 1200 R34/P2000D +SHRA OVC038 //////CB 18/17 Q1011
16:20
V
0 °C 10 km+ - 060° 060° 8 kt METAR EFVA 171320Z AUTO 06008KT 010V080 9999
15:50
V
18 °C 10 km+ - 050° 050° 8 kt METAR EFVA 171250Z AUTO 05008KT 9999 -SHRA NSC 18/17 Q1011
15:20
V
18 °C 10 km+ - 050° 050° 10 kt METAR EFVA 171220Z AUTO 05010KT 020V080 9999 -SHRA //////CB 18/17 Q1011
14:50
V
18 °C 10 km+ - 050° 050° 8 kt METAR EFVA 171150Z AUTO 05008KT 020V080 9999 SHRA //////CB 18/17 Q1012 RERA
14:20
V
0 °C 10 km+ - 070° 070° 6 kt METAR EFVA 171120Z AUTO 07006KT 020V090 9999
13:50
V
18 °C 10 km+ - 070° 070° 7 kt METAR EFVA 171050Z AUTO 07007KT 9999 -RA FEW026 18/17 Q1013 RESHRA
13:20
V
18 °C 10 km+ - 070° 070° 7 kt METAR EFVA 171020Z AUTO 07007KT 9999 -SHRA FEW030 //////CB 18/17 Q1013
12:50
V
18 °C 10 km+ - 080° 080° 6 kt METAR EFVA 170950Z AUTO 08006KT 050V110 9999 -RA NSC 18/17 Q1014 RESHRA
12:20
V
18 °C 10 km+ - 090° 090° 6 kt METAR EFVA 170920Z AUTO 09006KT 9999 -SHRA //////CB 18/17 Q1014
11:50
V
19 °C 10 km+ - 100° 100° 6 kt METAR EFVA 170850Z AUTO 10006KT 9999 -RA NSC 19/17 Q1014
11:20
V
18 °C 10 km+ - 120° 120° 6 kt METAR EFVA 170820Z AUTO 12006KT 9999 -SHRA NSC 18/17 Q1014
10:50
V
18 °C 10 km+ - 120° 120° 7 kt METAR EFVA 170750Z AUTO 12007KT 090V150 9999 -SHRA FEW049 //////CB 18/17 Q1014
10:20
V
18 °C 10 km+ 4.800 ft 140° 140° 5 kt METAR EFVA 170720Z AUTO 14005KT 9999 -SHRA OVC048 //////CB 18/16 Q1014
09:50
V
18 °C 10 km+ - 080° 080° 6 kt METAR EFVA 170650Z AUTO 08006KT 9999 -SHRA //////CB 18/16 Q1014
09:20
V
18 °C 10 km+ - 090° 090° 7 kt METAR EFVA 170620Z AUTO 09007KT 060V120 9999 -SHRA //////CB 18/15 Q1014
08:50
V
18 °C 10 km+ - 110° 110° 6 kt METAR EFVA 170550Z AUTO 11006KT 9999 //////CB 18/15 Q1014
Segnala modifiche